Time;durP1;ratioP1;P1;durP2;ratioP2;P2;SDS_P1;SDS_P2;PMS_P1;PMS_P2;Temp;Humidity;BMP_temperature;BMP_pressure;BME280_temperature;BME280_humidity;BME280_pressure;Samples;Min_cycle;Max_cycle;Signal;HPM_P1;HPM_P2
2021/08/20 05:53:07;;;;;;;8.15;5.90;;;;;;;;;;10581816;27;20411;-86
2021/08/20 05:58:08;;;;;;;9.63;7.22;;;;;;;;;;10583437;28;20383;-85
2021/08/20 06:03:09;;;;;;;12.25;8.88;;;;;;;;;;10590346;28;20036;-87
2021/08/20 06:08:09;;;;;;;;;;;;;;;;;;10577649;28;20419;-85
2021/08/20 06:13:11;;;;;;;5.45;4.82;;;;;;;;;;10578231;28;19930;-86
2021/08/20 06:18:12;;;;;;;11.25;8.32;;;;;;;;;;10576997;28;20555;-85
2021/08/20 06:23:13;;;;;;;;;;;;;;;;;;10577509;28;20048;-85
2021/08/20 06:28:14;;;;;;;10.43;8.38;;;;;;;;;;10580025;28;20430;-86
2021/08/20 06:33:15;;;;;;;;;;;;;;;;;;10577933;28;20095;-86
2021/08/20 06:38:15;;;;;;;18.15;12.55;;;;;;;;;;10576603;28;20338;-85
2021/08/20 06:43:16;;;;;;;;;;;;;;;;;;10577660;28;20076;-85
2021/08/20 06:48:18;;;;;;;14.80;11.07;;;;;;;;;;10574413;28;20389;-84
2021/08/20 06:53:19;;;;;;;10.45;7.30;;;;;;;;;;10576120;28;20023;-85
2021/08/20 06:58:20;;;;;;;;;;;;;;;;;;10583444;27;20036;-86
2021/08/20 07:03:21;;;;;;;12.45;7.90;;;;;;;;;;10562643;28;19915;-87
2021/08/20 07:08:22;;;;;;;;;;;;;;;;;;10559034;28;20501;-88
2021/08/20 07:13:22;;;;;;;11.32;6.88;;;;;;;;;;10548165;28;19930;-86
2021/08/20 07:18:23;;;;;;;;;;;;;;;;;;10545439;28;20115;-87
2021/08/20 07:23:24;;;;;;;11.55;7.72;;;;;;;;;;10543924;28;20340;-87
2021/08/20 07:28:32;;;;;;;;;;;;;;;;;;10547147;28;20597;-87
2021/08/20 07:33:33;;;;;;;12.80;8.10;;;;;;;;;;10546090;28;19904;-87
2021/08/20 07:38:33;;;;;;;15.10;8.75;;;;;;;;;;10547423;28;20055;-85
2021/08/20 07:43:34;;;;;;;18.17;9.30;;;;;;;;;;10545978;28;20024;-86
2021/08/20 07:48:35;;;;;;;13.68;9.82;;;;;;;;;;10546504;28;20119;-84
2021/08/20 07:53:36;;;;;;;20.65;9.70;;;;;;;;;;10577776;27;20088;-86
2021/08/20 07:58:37;;;;;;;15.82;9.90;;;;;;;;;;10584314;27;20035;-85
2021/08/20 08:03:38;;;;;;;13.80;9.57;;;;;;;;;;10578818;27;20028;-84
2021/08/20 08:08:40;;;;;;;14.98;10.57;;;;;;;;;;10546284;28;20040;-85
2021/08/20 08:13:41;;;;;;;13.15;10.50;;;;;;;;;;10543389;28;20054;-87
2021/08/20 08:18:42;;;;;;;18.30;12.85;;;;;;;;;;10542822;28;20096;-85
2021/08/20 08:23:43;;;;;;;17.88;13.07;;;;;;;;;;10543041;28;20126;-85
2021/08/20 08:28:44;;;;;;;17.40;13.77;;;;;;;;;;10546516;28;20471;-85
2021/08/20 08:33:44;;;;;;;19.30;15.70;;;;;;;;;;10542590;28;20039;-86
2021/08/20 08:38:45;;;;;;;19.70;14.48;;;;;;;;;;10550297;27;20054;-87
2021/08/20 08:43:46;;;;;;;17.70;14.43;;;;;;;;;;10541570;28;20020;-88
2021/08/20 08:48:48;;;;;;;23.48;17.48;;;;;;;;;;10540404;28;20620;-89
2021/08/20 08:53:49;;;;;;;18.15;14.15;;;;;;;;;;10540156;28;20489;-89
2021/08/20 08:58:50;;;;;;;19.48;15.73;;;;;;;;;;10539990;28;20052;-88
2021/08/20 09:04:05;;;;;;;19.58;15.90;;;;;;;;;;10539867;28;20024;-88
2021/08/20 09:09:07;;;;;;;19.00;15.98;;;;;;;;;;10541742;28;20024;-87
2021/08/20 09:14:08;;;;;;;19.90;16.25;;;;;;;;;;10539056;28;20074;-88
2021/08/20 09:19:14;;;;;;;20.15;17.17;;;;;;;;;;10538441;28;20024;-88
2021/08/20 09:24:31;;;;;;;22.23;17.25;;;;;;;;;;10541556;28;20024;-88
2021/08/20 09:29:32;;;;;;;22.35;17.67;;;;;;;;;;10541456;28;20020;-88
2021/08/20 09:34:50;;;;;;;17.48;15.50;;;;;;;;;;10539840;28;20024;-89
2021/08/20 09:39:59;;;;;;;16.65;14.90;;;;;;;;;;10547360;27;20096;-88
2021/08/20 09:45:18;;;;;;;15.65;13.20;;;;;;;;;;10540760;28;20055;-89
2021/08/20 09:50:21;;;;;;;14.55;13.05;;;;;;;;;;10546522;28;20118;-88
2021/08/20 09:55:41;;;;;;;14.48;12.98;;;;;;;;;;10539739;28;20038;-90
2021/08/20 10:00:46;;;;;;;14.05;11.93;;;;;;;;;;10555957;28;20024;-88
2021/08/20 10:05:50;;;;;;;14.95;12.20;;;;;;;;;;10541973;28;20024;-89
2021/08/20 10:10:55;;;;;;;11.27;10.13;;;;;;;;;;10551068;27;20054;-89
2021/08/20 10:16:05;;;;;;;13.80;10.73;;;;;;;;;;10541963;28;20055;-89
2021/08/20 10:21:06;;;;;;;11.90;10.23;;;;;;;;;;10539782;28;20040;-88
2021/08/20 10:26:07;;;;;;;12.88;9.77;;;;;;;;;;10538687;28;20045;-86
2021/08/20 10:31:17;;;;;;;10.13;8.35;;;;;;;;;;10540203;28;20134;-87
2021/08/20 10:36:35;;;;;;;9.73;8.73;;;;;;;;;;10540772;28;20052;-89
2021/08/20 10:42:08;;;;;;;12.43;11.10;;;;;;;;;;10558827;28;20024;-88
2021/08/20 10:47:12;;;;;;;11.48;8.40;;;;;;;;;;10558698;28;20330;-90
2021/08/20 10:52:24;;;;;;;10.05;8.20;;;;;;;;;;10547587;28;20063;-89
2021/08/20 11:36:13;;;;;;;7.20;6.13;;;;;;;;;;10338225;28;20022;-84
2021/08/20 11:46:55;;;;;;;5.88;5.10;;;;;;;;;;10315940;28;20035;-84
2021/08/20 11:52:22;;;;;;;6.97;5.00;;;;;;;;;;10392817;28;20042;-85
2021/08/20 11:57:38;;;;;;;6.07;5.47;;;;;;;;;;10409202;28;20065;-84
2021/08/20 12:03:11;;;;;;;5.80;5.15;;;;;;;;;;10411057;28;20038;-83
2021/08/20 12:08:14;;;;;;;5.20;4.70;;;;;;;;;;10414214;28;20106;-83
2021/08/20 12:13:31;;;;;;;4.35;3.92;;;;;;;;;;10415644;28;20034;-83
2021/08/20 12:19:11;;;;;;;3.92;3.50;;;;;;;;;;10408212;28;20041;-82
2021/08/20 12:24:12;;;;;;;2.95;2.20;;;;;;;;;;10406211;28;20041;-83
2021/08/20 12:29:23;;;;;;;4.30;3.10;;;;;;;;;;10403541;28;20064;-82
2021/08/20 12:45:59;;;;;;;3.25;2.25;;;;;;;;;;10395739;28;20038;-84
2021/08/20 12:51:01;;;;;;;2.60;2.03;;;;;;;;;;10386671;28;20141;-85
2021/08/20 12:56:02;;;;;;;3.25;1.70;;;;;;;;;;10393349;28;20038;-85
2021/08/20 13:01:07;;;;;;;3.78;2.45;;;;;;;;;;10387461;28;20502;-86
2021/08/20 13:06:10;;;;;;;4.80;2.58;;;;;;;;;;10393307;28;20079;-85
2021/08/20 13:11:23;;;;;;;2.42;1.90;;;;;;;;;;10392743;28;20077;-84
2021/08/20 13:16:24;;;;;;;2.95;1.85;;;;;;;;;;10367594;28;20119;-82
2021/08/20 13:21:25;;;;;;;3.85;1.98;;;;;;;;;;10379302;28;20038;-83
2021/08/20 13:26:26;;;;;;;2.80;2.08;;;;;;;;;;10380072;28;20128;-84
2021/08/20 13:31:28;;;;;;;3.67;2.50;;;;;;;;;;10382497;28;20046;-86
2021/08/20 13:36:35;;;;;;;2.50;2.00;;;;;;;;;;10383393;28;20499;-85
2021/08/20 13:41:36;;;;;;;3.08;2.10;;;;;;;;;;10383700;28;20038;-85
2021/08/20 13:46:37;;;;;;;5.07;4.30;;;;;;;;;;10387661;28;20038;-85
2021/08/20 13:51:38;;;;;;;2.60;2.38;;;;;;;;;;10388333;28;20107;-84
2021/08/20 13:56:39;;;;;;;3.83;2.78;;;;;;;;;;10384030;28;20542;-84
2021/08/20 14:01:40;;;;;;;3.72;2.47;;;;;;;;;;10386554;28;20045;-83
2021/08/20 14:06:44;;;;;;;5.30;4.57;;;;;;;;;;10385270;28;20053;-85
2021/08/20 14:11:45;;;;;;;4.03;2.80;;;;;;;;;;10393231;28;20038;-83
2021/08/20 14:16:46;;;;;;;3.10;2.67;;;;;;;;;;10404685;28;20026;-84
2021/08/20 14:21:47;;;;;;;4.68;3.30;;;;;;;;;;10407203;28;20052;-85
2021/08/20 14:26:48;;;;;;;5.15;4.10;;;;;;;;;;10404603;28;20034;-85
2021/08/20 14:31:49;;;;;;;5.35;3.72;;;;;;;;;;10409948;28;20045;-85
2021/08/20 14:36:50;;;;;;;3.88;3.47;;;;;;;;;;10403779;28;20293;-84
2021/08/20 14:41:51;;;;;;;5.78;3.53;;;;;;;;;;10400361;28;20034;-84
2021/08/20 15:21:29;;;;;;;5.97;3.90;;;;;;;;;;10411416;28;20038;-85
2021/08/20 15:26:54;;;;;;;5.73;3.73;;;;;;;;;;10445282;28;20089;-85
2021/08/20 15:48:41;;;;;;;3.50;2.90;;;;;;;;;;10444252;28;20602;-84
2021/08/20 16:22:08;;;;;;;5.05;3.00;;;;;;;;;;10398503;28;20459;-83
2021/08/20 16:27:09;;;;;;;3.13;2.63;;;;;;;;;;10396147;28;20038;-82
2021/08/20 16:32:10;;;;;;;4.63;3.92;;;;;;;;;;10392588;28;20042;-82
2021/08/20 16:37:11;;;;;;;5.78;4.03;;;;;;;;;;10394276;28;20153;-81
2021/08/20 16:42:12;;;;;;;4.65;4.00;;;;;;;;;;10389209;28;20080;-82
2021/08/20 16:47:13;;;;;;;3.55;2.90;;;;;;;;;;10389136;28;20116;-83
2021/08/20 16:52:14;;;;;;;4.45;3.00;;;;;;;;;;10388482;28;20045;-83
2021/08/20 16:57:15;;;;;;;4.82;3.10;;;;;;;;;;10393440;28;20040;-82
2021/08/20 17:02:16;;;;;;;3.55;3.10;;;;;;;;;;10394860;28;20048;-82
2021/08/20 17:07:17;;;;;;;5.13;2.80;;;;;;;;;;10392330;28;20030;-84
2021/08/20 17:12:18;;;;;;;2.85;2.50;;;;;;;;;;10390576;28;20057;-84
2021/08/20 17:17:20;;;;;;;2.88;2.00;;;;;;;;;;10451549;23;20059;-84
2021/08/20 17:22:21;;;;;;;3.88;2.47;;;;;;;;;;10503400;28;20063;-84
2021/08/20 17:27:22;;;;;;;3.60;2.63;;;;;;;;;;10528937;28;20040;-84
2021/08/20 17:32:24;;;;;;;3.10;2.28;;;;;;;;;;10545316;28;20343;-83
2021/08/20 17:37:26;;;;;;;4.07;2.45;;;;;;;;;;10548355;28;20103;-82
2021/08/20 17:42:27;;;;;;;3.75;2.22;;;;;;;;;;10532208;28;20097;-83
2021/08/20 17:47:28;;;;;;;3.08;2.63;;;;;;;;;;10529380;28;20036;-84
2021/08/20 17:52:32;;;;;;;3.55;2.90;;;;;;;;;;10546797;28;20498;-84
2021/08/20 17:57:32;;;;;;;3.22;2.60;;;;;;;;;;10537236;28;20543;-84
2021/08/20 18:02:34;;;;;;;4.55;2.78;;;;;;;;;;10538617;28;20040;-84
2021/08/20 18:07:35;;;;;;;5.32;2.90;;;;;;;;;;10539749;28;20036;-84
2021/08/20 18:12:37;;;;;;;6.93;3.78;;;;;;;;;;10541769;28;20033;-84
2021/08/20 18:17:42;;;;;;;6.20;3.88;;;;;;;;;;10524763;28;20505;-84
2021/08/20 18:22:43;;;;;;;7.82;5.03;;;;;;;;;;10544943;28;20032;-84
2021/08/20 18:27:44;;;;;;;9.13;5.72;;;;;;;;;;10541828;28;20054;-84
2021/08/20 18:32:45;;;;;;;7.00;4.20;;;;;;;;;;10538761;28;20070;-84
2021/08/20 18:37:46;;;;;;;6.25;4.13;;;;;;;;;;10536093;28;20047;-84
2021/08/20 18:42:47;;;;;;;9.18;4.72;;;;;;;;;;10538281;28;20044;-84
2021/08/20 18:47:49;;;;;;;9.43;4.35;;;;;;;;;;10536501;28;20105;-84
2021/08/20 18:52:51;;;;;;;8.40;4.13;;;;;;;;;;10550155;28;20524;-84
2021/08/20 18:57:53;;;;;;;6.75;3.72;;;;;;;;;;10570090;28;20039;-84
2021/08/20 19:02:54;;;;;;;8.50;4.30;;;;;;;;;;10552073;28;20039;-84
2021/08/20 19:07:56;;;;;;;7.85;4.50;;;;;;;;;;10549141;28;20028;-85
2021/08/20 19:12:58;;;;;;;6.40;4.03;;;;;;;;;;10546627;28;20477;-85
2021/08/20 19:17:59;;;;;;;9.15;4.10;;;;;;;;;;10528787;28;20040;-85
2021/08/20 19:23:00;;;;;;;5.85;3.92;;;;;;;;;;10561824;28;20032;-85
2021/08/20 19:28:23;;;;;;;5.07;3.60;;;;;;;;;;10546576;28;20446;-85
2021/08/20 19:33:26;;;;;;;5.65;3.72;;;;;;;;;;10548658;28;20046;-85
2021/08/20 19:38:28;;;;;;;5.47;3.80;;;;;;;;;;10544135;28;20043;-85
2021/08/20 19:43:29;;;;;;;5.18;3.53;;;;;;;;;;10541292;28;20036;-84
2021/08/20 19:48:30;;;;;;;4.93;4.03;;;;;;;;;;10538011;28;20059;-84
2021/08/20 19:53:54;;;;;;;4.85;3.45;;;;;;;;;;10553936;28;20089;-84
2021/08/20 19:59:09;;;;;;;5.63;3.45;;;;;;;;;;10538639;28;20070;-84
2021/08/20 20:04:10;;;;;;;5.88;3.55;;;;;;;;;;10543326;28;20506;-83
2021/08/20 20:09:12;;;;;;;4.90;3.30;;;;;;;;;;10541953;28;20478;-84
2021/08/20 20:14:13;;;;;;;4.88;3.47;;;;;;;;;;10540650;28;20039;-84
2021/08/20 20:19:14;;;;;;;4.93;3.60;;;;;;;;;;10537766;28;20040;-84
2021/08/20 20:24:17;;;;;;;5.82;3.45;;;;;;;;;;10544288;28;20048;-83
2021/08/20 20:29:18;;;;;;;4.05;3.20;;;;;;;;;;10537108;28;20085;-83
2021/08/20 20:34:19;;;;;;;4.80;3.20;;;;;;;;;;10539974;28;20035;-84
2021/08/20 20:39:20;;;;;;;4.05;3.50;;;;;;;;;;10538818;28;20039;-83
2021/08/20 20:44:21;;;;;;;3.60;2.92;;;;;;;;;;10556200;28;20489;-83
2021/08/20 20:49:22;;;;;;;5.05;3.60;;;;;;;;;;10541077;28;20474;-84
2021/08/20 20:54:23;;;;;;;5.50;4.10;;;;;;;;;;10548053;28;20036;-85
2021/08/20 20:59:24;;;;;;;5.07;3.20;;;;;;;;;;10567727;28;20130;-85
2021/08/20 21:04:25;;;;;;;4.90;3.47;;;;;;;;;;10547769;28;20484;-85
2021/08/20 21:09:26;;;;;;;5.20;4.05;;;;;;;;;;10544311;28;20032;-83
2021/08/20 21:14:27;;;;;;;4.40;3.13;;;;;;;;;;10536787;28;20375;-83
2021/08/20 21:19:28;;;;;;;4.82;3.75;;;;;;;;;;10538792;28;20067;-83
2021/08/20 21:24:29;;;;;;;5.32;3.60;;;;;;;;;;10543174;28;20123;-83
2021/08/20 21:29:30;;;;;;;4.43;3.50;;;;;;;;;;10539811;28;20497;-83
2021/08/20 21:34:31;;;;;;;4.18;3.38;;;;;;;;;;10534376;28;20032;-84
2021/08/20 21:39:32;;;;;;;5.28;3.70;;;;;;;;;;10532965;28;20496;-84
2021/08/20 21:44:33;;;;;;;4.30;3.60;;;;;;;;;;10541613;28;20031;-83
2021/08/20 21:49:35;;;;;;;7.38;5.22;;;;;;;;;;10548161;28;20421;-83
2021/08/20 21:54:36;;;;;;;5.75;4.72;;;;;;;;;;10547792;28;20043;-83
2021/08/20 21:59:37;;;;;;;8.02;6.35;;;;;;;;;;10537483;28;20122;-84
2021/08/20 22:04:39;;;;;;;8.07;6.88;;;;;;;;;;10536268;28;20036;-83
2021/08/20 22:09:40;;;;;;;8.85;7.30;;;;;;;;;;10559439;28;20036;-84
2021/08/20 22:14:40;;;;;;;10.70;8.23;;;;;;;;;;10542096;28;20074;-83
2021/08/20 22:19:41;;;;;;;8.70;7.25;;;;;;;;;;10541642;28;20127;-83
2021/08/20 22:24:42;;;;;;;10.55;8.23;;;;;;;;;;10539763;28;20514;-83
2021/08/20 22:29:43;;;;;;;10.43;7.75;;;;;;;;;;10540038;28;20032;-83
2021/08/20 22:34:44;;;;;;;11.75;8.32;;;;;;;;;;10545036;28;20070;-83
2021/08/20 22:39:45;;;;;;;9.73;7.95;;;;;;;;;;10564146;28;20494;-83
2021/08/20 22:44:46;;;;;;;9.98;8.02;;;;;;;;;;10545647;28;20074;-83
2021/08/20 22:49:47;;;;;;;9.02;7.45;;;;;;;;;;10544887;28;20035;-83
2021/08/20 22:54:48;;;;;;;8.25;6.97;;;;;;;;;;10546796;28;20028;-82
2021/08/20 22:59:49;;;;;;;8.23;6.72;;;;;;;;;;10552567;28;20390;-83
2021/08/20 23:04:50;;;;;;;9.10;7.10;;;;;;;;;;10567560;28;20061;-84
2021/08/20 23:09:51;;;;;;;9.63;6.93;;;;;;;;;;10546860;28;20489;-84
2021/08/20 23:14:52;;;;;;;9.40;6.53;;;;;;;;;;10547499;28;20028;-83
2021/08/20 23:19:53;;;;;;;7.50;6.20;;;;;;;;;;10545510;28;20079;-83
2021/08/20 23:24:54;;;;;;;7.15;5.97;;;;;;;;;;10565418;28;20043;-83
2021/08/20 23:29:55;;;;;;;7.65;6.03;;;;;;;;;;10569542;28;20034;-83
2021/08/20 23:34:57;;;;;;;6.68;5.90;;;;;;;;;;10541730;28;20036;-83
2021/08/20 23:39:58;;;;;;;6.07;5.13;;;;;;;;;;10541228;28;20058;-83
2021/08/20 23:44:59;;;;;;;6.82;5.28;;;;;;;;;;10542349;28;20060;-83
2021/08/20 23:50:01;;;;;;;7.22;5.30;;;;;;;;;;10544327;28;20058;-83
2021/08/20 23:55:02;;;;;;;7.18;5.20;;;;;;;;;;10542700;28;20043;-83
